createdAt,value
2023-10-26T06:47:40.389Z,332.00
2023-10-26T06:48:40.283Z,348.00
2023-10-26T06:49:40.238Z,372.00
2023-10-26T06:50:40.227Z,384.00
2023-10-26T06:51:40.237Z,388.00
2023-10-26T06:52:40.206Z,372.00
2023-10-26T06:53:40.206Z,360.00
2023-10-26T06:54:40.795Z,360.00
2023-10-26T06:55:40.170Z,368.00
2023-10-26T06:56:40.154Z,384.00
2023-10-26T06:57:40.146Z,384.00
2023-10-26T06:58:40.152Z,380.00
2023-10-26T06:59:40.132Z,368.00
2023-10-26T07:00:40.168Z,348.00
2023-10-26T07:02:09.744Z,340.00
2023-10-26T07:02:41.137Z,344.00
2023-10-26T07:03:40.209Z,364.00
2023-10-26T07:04:40.145Z,392.00
2023-10-26T07:05:40.057Z,420.00
2023-10-26T07:06:40.077Z,440.00
2023-10-26T07:07:40.039Z,464.00
2023-10-26T07:08:40.062Z,516.00
2023-10-26T07:09:40.016Z,556.00
2023-10-26T07:10:39.999Z,576.00
2023-10-26T07:11:39.987Z,608.00
2023-10-26T07:12:40.046Z,692.00
2023-10-26T07:13:39.966Z,724.00
2023-10-26T07:14:39.977Z,720.00
2023-10-26T07:15:39.968Z,780.00
2023-10-26T07:16:39.964Z,964.00
2023-10-26T07:17:40.043Z,1172.00
2023-10-26T07:18:39.939Z,1336.00
2023-10-26T07:19:39.934Z,1384.00
2023-10-26T07:20:39.890Z,1440.00
2023-10-26T07:21:39.932Z,1492.00
2023-10-26T07:22:39.862Z,1568.00
2023-10-26T07:23:39.852Z,1616.00
2023-10-26T07:24:39.876Z,1592.00
2023-10-26T07:25:39.832Z,1424.00
2023-10-26T07:26:39.823Z,1264.00
2023-10-26T07:27:39.852Z,1144.00
2023-10-26T07:28:39.793Z,1084.00
2023-10-26T07:29:39.855Z,1072.00
2023-10-26T07:30:39.834Z,1108.00
2023-10-26T07:31:39.836Z,1156.00
2023-10-26T07:32:39.763Z,1148.00
2023-10-26T07:33:39.780Z,1100.00
2023-10-26T07:34:39.731Z,1068.00
2023-10-26T07:35:39.739Z,1028.00
2023-10-26T07:36:39.763Z,988.00
2023-10-26T07:37:39.696Z,956.00
2023-10-26T07:38:39.681Z,932.00
2023-10-26T07:39:46.456Z,880.00
2023-10-26T07:40:40.711Z,860.00
2023-10-26T07:42:06.882Z,828.00
2023-10-26T07:42:40.685Z,832.00
2023-10-26T07:43:39.628Z,872.00
2023-10-26T07:44:39.634Z,928.00
2023-10-26T07:45:39.630Z,960.00
2023-10-26T07:46:39.634Z,980.00
2023-10-26T07:47:39.652Z,948.00
2023-10-26T07:48:39.613Z,904.00
2023-10-26T07:49:39.561Z,916.00
2023-10-26T07:50:41.049Z,924.00
2023-10-26T07:51:39.611Z,960.00
2023-10-26T07:52:39.561Z,1000.00
2023-10-26T07:53:39.526Z,1024.00
2023-10-26T07:54:39.541Z,988.00
2023-10-26T07:55:39.490Z,840.00
2023-10-26T07:56:39.493Z,888.00
2023-10-26T07:57:39.490Z,956.00
2023-10-26T07:58:39.515Z,980.00
2023-10-26T07:59:39.448Z,1028.00
2023-10-26T08:00:39.459Z,1112.00
2023-10-26T08:01:39.468Z,1236.00
2023-10-26T08:02:40.964Z,1352.00
2023-10-26T08:03:39.479Z,1432.00
2023-10-26T08:04:39.477Z,1468.00
2023-10-26T08:05:39.374Z,1452.00
2023-10-26T08:06:39.363Z,1476.00
2023-10-26T08:07:39.455Z,1644.00
2023-10-26T08:08:39.376Z,1676.00
2023-10-26T08:09:39.328Z,1664.00
2023-10-26T08:10:39.401Z,1592.00
2023-10-26T08:11:39.308Z,1492.00
2023-10-26T08:12:39.303Z,1424.00
2023-10-26T08:13:39.326Z,1416.00
2023-10-26T08:16:08.966Z,1452.00
2023-10-26T08:16:10.337Z,1428.00
2023-10-26T08:16:44.887Z,1344.00
2023-10-26T08:17:39.424Z,1348.00
2023-10-26T08:18:39.376Z,1348.00
2023-10-26T08:19:39.253Z,1352.00
2023-10-26T08:20:39.203Z,1368.00
2023-10-26T08:21:39.200Z,1420.00
2023-10-26T08:22:39.215Z,1336.00
2023-10-26T08:23:39.207Z,1176.00
2023-10-26T08:24:39.191Z,1044.00
2023-10-26T08:25:39.214Z,1048.00
2023-10-26T08:26:39.138Z,1060.00
2023-10-26T08:27:39.123Z,1212.00
2023-10-26T08:28:39.130Z,1508.00
2023-10-26T08:29:39.111Z,1700.00
2023-10-26T08:30:39.107Z,1864.00
2023-10-26T08:31:39.520Z,1964.00
2023-10-26T08:32:39.189Z,1992.00
2023-10-26T08:33:39.115Z,1940.00
2023-10-26T08:34:39.125Z,1892.00
2023-10-26T08:35:39.067Z,2000.00
2023-10-26T08:36:42.153Z,2440.00
2023-10-26T08:37:40.039Z,2608.00
2023-10-26T08:38:39.010Z,2692.00
2023-10-26T08:39:39.045Z,2756.00
2023-10-26T08:40:38.997Z,2800.00
2023-10-26T08:41:38.996Z,2796.00
2023-10-26T08:42:38.967Z,2944.00
2023-10-26T08:43:38.979Z,3120.00
2023-10-26T08:44:38.957Z,3392.00
2023-10-26T08:45:38.917Z,3744.00
2023-10-26T08:46:39.037Z,4036.00
2023-10-26T08:47:38.948Z,4456.00
2023-10-26T08:48:38.898Z,5360.00
2023-10-26T08:49:38.925Z,4824.00
2023-10-26T08:50:38.918Z,5248.00
2023-10-26T08:51:38.855Z,4064.00
2023-10-26T08:52:38.886Z,2972.00
2023-10-26T08:53:38.830Z,2284.00
2023-10-26T08:54:38.924Z,2236.00
2023-10-26T08:55:38.891Z,2416.00
2023-10-26T08:56:38.832Z,2656.00
2023-10-26T08:57:38.805Z,2680.00
2023-10-26T08:58:38.850Z,2988.00
2023-10-26T08:59:38.780Z,3344.00
2023-10-26T09:00:38.754Z,3412.00
2023-10-26T09:01:38.821Z,3184.00
2023-10-26T09:02:38.869Z,3192.00
2023-10-26T09:03:38.794Z,2804.00
2023-10-26T09:04:38.832Z,3060.00
2023-10-26T09:05:38.691Z,3776.00
2023-10-26T09:06:38.679Z,3648.00
2023-10-26T09:07:38.689Z,3684.00
2023-10-26T09:08:38.676Z,3564.00
2023-10-26T09:09:38.658Z,3020.00
2023-10-26T09:10:38.671Z,2632.00
2023-10-26T09:11:38.647Z,2512.00
2023-10-26T09:12:38.618Z,2500.00
2023-10-26T09:13:38.685Z,1892.00
2023-10-26T09:14:38.626Z,1348.00
2023-10-26T09:15:38.582Z,1164.00
2023-10-26T09:16:38.633Z,1084.00
2023-10-26T09:17:38.662Z,1100.00
2023-10-26T09:18:38.546Z,1140.00
2023-10-26T09:19:38.586Z,1388.00
2023-10-26T09:20:38.537Z,1936.00
2023-10-26T09:21:38.516Z,2004.00
2023-10-26T09:22:38.586Z,1944.00
2023-10-26T09:23:38.569Z,1608.00
2023-10-26T09:24:38.540Z,1424.00
2023-10-26T09:25:38.581Z,1368.00
2023-10-26T09:26:38.452Z,1352.00
2023-10-26T09:27:38.462Z,1408.00
2023-10-26T09:28:38.448Z,1528.00
2023-10-26T09:29:38.434Z,1744.00
2023-10-26T09:30:38.404Z,1952.00
2023-10-26T09:31:38.541Z,2044.00
2023-10-26T09:32:38.603Z,2048.00
2023-10-26T09:33:38.428Z,2300.00
2023-10-26T09:34:38.390Z,1932.00
2023-10-26T09:35:38.349Z,2000.00
2023-10-26T09:36:38.337Z,2256.00
2023-10-26T09:37:38.618Z,2272.00
2023-10-26T09:38:38.718Z,2152.00
2023-10-26T09:39:38.308Z,2156.00
2023-10-26T09:40:38.318Z,2320.00
2023-10-26T09:41:38.280Z,2576.00
2023-10-26T09:42:38.302Z,2636.00
2023-10-26T09:43:38.278Z,2420.00
2023-10-26T09:44:38.256Z,2244.00
2023-10-26T09:45:38.247Z,2280.00
2023-10-26T09:46:38.291Z,2424.00
2023-10-26T09:47:38.350Z,2120.00
2023-10-26T09:48:38.306Z,1892.00
2023-10-26T09:49:38.235Z,1812.00
2023-10-26T09:50:38.182Z,1636.00
2023-10-26T09:51:38.166Z,1616.00
2023-10-26T09:52:38.153Z,1700.00
2023-10-26T09:53:38.226Z,1920.00
2023-10-26T09:54:38.141Z,2104.00
2023-10-26T09:55:38.128Z,2228.00
2023-10-26T09:56:38.139Z,2564.00
2023-10-26T09:57:38.118Z,2848.00
2023-10-26T09:58:38.087Z,2740.00
2023-10-26T09:59:38.123Z,2972.00
2023-10-26T10:00:38.088Z,2856.00
2023-10-26T10:01:38.287Z,2584.00
2023-10-26T10:02:38.054Z,2540.00
2023-10-26T10:03:38.068Z,2856.00
2023-10-26T10:04:38.032Z,3688.00
2023-10-26T10:05:38.007Z,3440.00
2023-10-26T10:06:38.082Z,2988.00
2023-10-26T10:07:37.986Z,2468.00
2023-10-26T10:08:37.974Z,2068.00
2023-10-26T10:09:38.004Z,1872.00
2023-10-26T10:10:37.954Z,1972.00
2023-10-26T10:11:37.939Z,2188.00
2023-10-26T10:12:37.948Z,2276.00
2023-10-26T10:13:37.919Z,2152.00
2023-10-26T10:14:37.918Z,2380.00
2023-10-26T10:15:42.586Z,2628.00
2023-10-26T10:16:38.942Z,3604.00
2023-10-26T10:17:38.161Z,3784.00
2023-10-26T10:18:37.881Z,3908.00
2023-10-26T10:19:38.239Z,3684.00
2023-10-26T10:20:37.838Z,3520.00
2023-10-26T10:21:37.838Z,3568.00
2023-10-26T10:22:37.821Z,3232.00
2023-10-26T10:23:37.809Z,3060.00
2023-10-26T10:24:37.809Z,2632.00
2023-10-26T10:25:37.794Z,2248.00
2023-10-26T10:26:37.765Z,2064.00
2023-10-26T10:27:37.826Z,1920.00
2023-10-26T10:28:37.751Z,1752.00
2023-10-26T10:29:37.728Z,1520.00
2023-10-26T10:30:37.782Z,1320.00
2023-10-26T10:31:37.733Z,1368.00
2023-10-26T10:32:37.797Z,1448.00
2023-10-26T10:33:37.774Z,1444.00
2023-10-26T10:34:37.693Z,1368.00
2023-10-26T10:35:37.695Z,1568.00
2023-10-26T10:36:37.688Z,1928.00
2023-10-26T10:37:37.639Z,2212.00
2023-10-26T10:38:37.634Z,2664.00
2023-10-26T10:39:37.669Z,3208.00
2023-10-26T10:40:37.605Z,3900.00
2023-10-26T10:41:37.631Z,6232.00
2023-10-26T10:42:37.593Z,3916.00
2023-10-26T10:43:37.615Z,3652.00
2023-10-26T10:44:37.557Z,3908.00
2023-10-26T10:45:37.598Z,4164.00
2023-10-26T10:46:37.589Z,4088.00
2023-10-26T10:47:37.571Z,3988.00
2023-10-26T10:48:37.521Z,3756.00
2023-10-26T10:49:37.472Z,3776.00
2023-10-26T10:50:37.457Z,3468.00
2023-10-26T10:51:37.484Z,3536.00
2023-10-26T10:52:37.432Z,3452.00
2023-10-26T10:53:37.418Z,3452.00
2023-10-26T10:54:48.463Z,4552.00
2023-10-26T10:55:38.443Z,4132.00
2023-10-26T10:56:37.439Z,3844.00
2023-10-26T10:57:37.442Z,3024.00
2023-10-26T10:58:37.498Z,2844.00
2023-10-26T10:59:37.367Z,2648.00
2023-10-26T11:00:37.386Z,2556.00
2023-10-26T11:01:37.360Z,2692.00
2023-10-26T11:02:37.363Z,2648.00
2023-10-26T11:03:37.391Z,2836.00
2023-10-26T11:04:51.330Z,2940.00
2023-10-26T11:05:38.291Z,2728.00
2023-10-26T11:06:37.317Z,2536.00
2023-10-26T11:07:37.290Z,2496.00
2023-10-26T11:08:37.269Z,2520.00
2023-10-26T11:09:37.289Z,2680.00
2023-10-26T11:10:37.264Z,2584.00
2023-10-26T11:11:37.244Z,2512.00
2023-10-26T11:12:37.287Z,2492.00
2023-10-26T11:13:37.220Z,2424.00
2023-10-26T11:14:37.213Z,2404.00
2023-10-26T11:15:37.241Z,2424.00
2023-10-26T11:16:37.234Z,2488.00
2023-10-26T11:17:37.201Z,2468.00
2023-10-26T11:18:37.188Z,2528.00
2023-10-26T11:19:37.278Z,2312.00
2023-10-26T11:20:37.147Z,2208.00
2023-10-26T11:21:37.206Z,2152.00
2023-10-26T11:22:37.143Z,2120.00
2023-10-26T11:23:37.115Z,2228.00
2023-10-26T11:24:37.155Z,2260.00
2023-10-26T11:25:37.093Z,2348.00
2023-10-26T11:26:37.083Z,2420.00
2023-10-26T11:27:38.700Z,2452.00
2023-10-26T11:28:37.062Z,2496.00
2023-10-26T11:29:37.050Z,2632.00
2023-10-26T11:30:37.076Z,2820.00
2023-10-26T11:31:37.072Z,2996.00
2023-10-26T11:32:37.046Z,3212.00
2023-10-26T11:33:37.047Z,3520.00
2023-10-26T11:34:36.996Z,3704.00
2023-10-26T11:35:37.090Z,3804.00
2023-10-26T11:36:36.984Z,3984.00
2023-10-26T11:37:36.980Z,4188.00
2023-10-26T11:38:36.951Z,4348.00
2023-10-26T11:39:36.960Z,5584.00
2023-10-26T11:40:36.925Z,5868.00
2023-10-26T11:41:36.912Z,5440.00
2023-10-26T11:42:36.954Z,5604.00
2023-10-26T11:43:36.889Z,5588.00
2023-10-26T11:44:36.895Z,6136.00
2023-10-26T11:45:36.925Z,6024.00
2023-10-26T11:46:36.952Z,5676.00
2023-10-26T11:47:36.876Z,5120.00
2023-10-26T11:48:36.861Z,5132.00
2023-10-26T11:49:36.820Z,5244.00
2023-10-26T11:50:36.812Z,4308.00
2023-10-26T11:51:40.459Z,3928.00
2023-10-26T11:52:37.788Z,3752.00
2023-10-26T11:53:36.960Z,3908.00
2023-10-26T11:54:36.817Z,3576.00
2023-10-26T11:55:36.756Z,3328.00
2023-10-26T11:56:36.743Z,3328.00
2023-10-26T11:57:36.765Z,2964.00
2023-10-26T11:58:36.751Z,2780.00
2023-10-26T11:59:36.704Z,2588.00
2023-10-26T12:00:36.732Z,2440.00
2023-10-26T12:01:36.715Z,2560.00
2023-10-26T12:02:36.684Z,2716.00
2023-10-26T12:03:36.748Z,2476.00
2023-10-26T12:04:36.653Z,2204.00
2023-10-26T12:05:36.640Z,2144.00
2023-10-26T12:06:36.653Z,2032.00
2023-10-26T12:07:36.643Z,1592.00
2023-10-26T12:08:36.608Z,1440.00
2023-10-26T12:09:36.618Z,1508.00
2023-10-26T12:10:36.594Z,1476.00
2023-10-26T12:11:36.570Z,1420.00
2023-10-26T12:12:36.587Z,1400.00
2023-10-26T12:13:36.573Z,1424.00
2023-10-26T12:14:36.551Z,1676.00
2023-10-26T12:15:36.551Z,1732.00
2023-10-26T12:16:36.563Z,1748.00
2023-10-26T12:17:36.525Z,1724.00
2023-10-26T12:18:36.572Z,1948.00
2023-10-26T12:19:36.514Z,1972.00
2023-10-26T12:20:36.472Z,1784.00
2023-10-26T12:21:36.524Z,1636.00
2023-10-26T12:22:36.460Z,1660.00
2023-10-26T12:23:36.556Z,1820.00
2023-10-26T12:24:36.451Z,1608.00
2023-10-26T12:25:36.431Z,1584.00
2023-10-26T12:26:36.407Z,1452.00
2023-10-26T12:28:20.551Z,1432.00
2023-10-26T12:28:37.410Z,1260.00
2023-10-26T12:29:36.373Z,1484.00
2023-10-26T12:30:36.478Z,1680.00
2023-10-26T12:31:36.392Z,1716.00
2023-10-26T12:32:36.339Z,1664.00
2023-10-26T12:33:39.886Z,1684.00
2023-10-26T12:34:37.313Z,1712.00
2023-10-26T12:35:37.022Z,1868.00
2023-10-26T12:36:36.361Z,2280.00
2023-10-26T12:37:36.279Z,2300.00
2023-10-26T12:38:36.277Z,2112.00
2023-10-26T12:39:36.400Z,2140.00
2023-10-26T12:40:36.246Z,2112.00
2023-10-26T12:41:36.268Z,1948.00
2023-10-26T12:42:36.243Z,1936.00
2023-10-26T12:43:36.226Z,1880.00
2023-10-26T12:44:36.198Z,1988.00
2023-10-26T12:45:37.437Z,2036.00
2023-10-26T12:46:36.208Z,2284.00
2023-10-26T12:47:36.222Z,2208.00
2023-10-26T12:48:36.218Z,3232.00
2023-10-26T12:49:36.170Z,3568.00
2023-10-26T12:50:36.133Z,2444.00
2023-10-26T12:51:37.605Z,2272.00
2023-10-26T12:52:36.157Z,3100.00
2023-10-26T12:53:36.104Z,3880.00
2023-10-26T12:54:36.116Z,3096.00
2023-10-26T12:55:36.205Z,2764.00
2023-10-26T12:56:36.064Z,2564.00
2023-10-26T12:57:36.077Z,2412.00
2023-10-26T12:58:36.058Z,2264.00
2023-10-26T12:59:36.036Z,2288.00
2023-10-26T13:00:36.081Z,2356.00
2023-10-26T13:01:36.114Z,2680.00
2023-10-26T13:02:36.029Z,2876.00
2023-10-26T13:03:36.021Z,2784.00
2023-10-26T13:04:36.002Z,2488.00
2023-10-26T13:05:35.969Z,2168.00
2023-10-26T13:06:35.953Z,2048.00
2023-10-26T13:07:35.942Z,1980.00
2023-10-26T13:08:35.949Z,2100.00
2023-10-26T13:09:35.937Z,2224.00
2023-10-26T13:10:35.946Z,2056.00
2023-10-26T13:11:36.013Z,2136.00
2023-10-26T13:12:35.909Z,2000.00
2023-10-26T13:13:35.877Z,2016.00
2023-10-26T13:14:35.902Z,1796.00
2023-10-26T13:15:35.874Z,1668.00
2023-10-26T13:16:56.649Z,1708.00
2023-10-26T13:17:36.874Z,1668.00
2023-10-26T13:18:35.835Z,1736.00
2023-10-26T13:19:35.809Z,1892.00
2023-10-26T13:20:35.810Z,1772.00
2023-10-26T13:21:35.790Z,1756.00
2023-10-26T13:22:35.775Z,2016.00
2023-10-26T13:23:35.767Z,2188.00
2023-10-26T13:24:35.868Z,2288.00
2023-10-26T13:25:35.756Z,2448.00
2023-10-26T13:26:35.726Z,2468.00
2023-10-26T13:27:35.840Z,2296.00
2023-10-26T13:28:35.715Z,2240.00
2023-10-26T13:29:35.694Z,2200.00
2023-10-26T13:30:35.730Z,2152.00
2023-10-26T13:31:35.748Z,2280.00
2023-10-26T13:32:35.674Z,2308.00
2023-10-26T13:33:35.669Z,2320.00
2023-10-26T13:34:35.647Z,2068.00
2023-10-26T13:35:35.632Z,1932.00
2023-10-26T13:36:35.793Z,1844.00
2023-10-26T13:37:35.620Z,1812.00
2023-10-26T13:38:35.594Z,1824.00
2023-10-26T13:39:35.603Z,1708.00
2023-10-26T13:40:35.568Z,1664.00
2023-10-26T13:41:35.560Z,1576.00
2023-10-26T13:42:35.640Z,1468.00
2023-10-26T13:43:35.678Z,1280.00
2023-10-26T13:44:35.526Z,1116.00
2023-10-26T13:45:35.524Z,1028.00
2023-10-26T13:46:35.532Z,1052.00
2023-10-26T13:47:35.543Z,1040.00
2023-10-26T13:48:35.552Z,1024.00
2023-10-26T13:49:35.472Z,988.00
2023-10-26T13:50:35.464Z,1016.00
2023-10-26T13:51:35.461Z,1112.00
2023-10-26T13:52:35.438Z,1208.00
2023-10-26T13:53:35.443Z,1296.00
2023-10-26T13:54:35.422Z,1440.00
2023-10-26T13:55:35.404Z,1672.00
2023-10-26T13:56:35.408Z,1824.00
2023-10-26T13:57:35.389Z,1928.00
2023-10-26T13:58:35.362Z,1892.00
2023-10-26T13:59:35.525Z,1664.00
2023-10-26T14:00:35.377Z,1556.00
2023-10-26T14:01:35.430Z,1436.00
2023-10-26T14:02:35.366Z,1280.00
2023-10-26T14:03:35.344Z,1208.00
2023-10-26T14:04:37.178Z,1236.00
2023-10-26T14:05:35.309Z,1228.00
2023-10-26T14:06:35.315Z,1264.00
2023-10-26T14:07:35.262Z,1264.00
2023-10-26T14:08:35.262Z,1292.00
2023-10-26T14:09:35.258Z,1396.00
2023-10-26T14:10:35.253Z,1500.00
2023-10-26T14:11:35.217Z,1516.00
2023-10-26T14:12:35.220Z,1472.00
2023-10-26T14:13:35.195Z,1360.00
2023-10-26T14:14:35.195Z,1360.00
2023-10-26T14:15:35.331Z,1364.00
2023-10-26T14:16:35.182Z,1304.00
2023-10-26T14:17:35.168Z,1324.00
2023-10-26T14:18:35.164Z,1328.00
2023-10-26T14:19:35.198Z,1360.00
2023-10-26T14:20:35.114Z,1440.00
2023-10-26T14:21:35.154Z,1544.00
2023-10-26T14:22:35.094Z,1500.00
2023-10-26T14:23:35.079Z,1432.00
2023-10-26T14:24:35.129Z,1324.00
2023-10-26T14:25:35.056Z,1152.00
2023-10-26T14:26:35.046Z,1024.00
2023-10-26T14:27:35.095Z,876.00
2023-10-26T14:28:35.036Z,896.00
2023-10-26T14:29:35.018Z,908.00
2023-10-26T14:30:35.025Z,944.00
2023-10-26T14:31:35.186Z,948.00
2023-10-26T14:32:35.001Z,920.00
2023-10-26T14:33:34.975Z,884.00
2023-10-26T14:34:34.950Z,852.00
2023-10-26T14:35:34.947Z,848.00
2023-10-26T14:36:34.982Z,912.00
2023-10-26T14:37:34.943Z,928.00
2023-10-26T14:38:34.905Z,956.00
2023-10-26T14:39:34.909Z,976.00
2023-10-26T14:40:34.887Z,1020.00
2023-10-26T14:41:34.875Z,1160.00
2023-10-26T14:42:34.882Z,1264.00
2023-10-26T14:43:34.881Z,1248.00
2023-10-26T14:44:34.840Z,1092.00
2023-10-26T14:45:34.884Z,956.00
2023-10-26T14:46:34.859Z,844.00
2023-10-26T14:47:34.933Z,812.00
2023-10-26T14:48:34.852Z,820.00
2023-10-26T14:49:34.784Z,844.00
2023-10-26T14:50:34.779Z,836.00
2023-10-26T14:51:34.781Z,844.00
2023-10-26T14:52:34.748Z,824.00
2023-10-26T14:53:34.743Z,808.00
2023-10-26T14:54:34.789Z,760.00
2023-10-26T14:55:34.766Z,716.00
2023-10-26T14:56:34.722Z,696.00
2023-10-26T14:57:34.727Z,660.00
2023-10-26T14:58:34.681Z,596.00
2023-10-26T14:59:34.688Z,548.00
2023-10-26T15:00:34.676Z,592.00
2023-10-26T15:01:34.792Z,640.00
2023-10-26T15:02:34.646Z,660.00
2023-10-26T15:03:34.769Z,648.00
2023-10-26T15:04:34.612Z,636.00
2023-10-26T15:05:34.666Z,612.00
2023-10-26T15:06:34.607Z,600.00
2023-10-26T15:07:34.581Z,600.00
2023-10-26T15:08:34.829Z,640.00
2023-10-26T15:10:21.842Z,652.00
2023-10-26T15:10:38.144Z,684.00
2023-10-26T15:11:55.256Z,692.00
2023-10-26T15:12:35.529Z,664.00
2023-10-26T15:13:34.514Z,596.00
2023-10-26T15:14:34.498Z,448.00
2023-10-26T15:15:34.551Z,404.00
2023-10-26T15:16:34.600Z,432.00
2023-10-26T15:17:34.536Z,376.00
2023-10-26T15:18:34.478Z,328.00
2023-10-26T15:19:34.558Z,344.00
2023-10-26T15:20:34.439Z,376.00
2023-10-26T15:21:34.511Z,360.00
2023-10-26T15:22:34.445Z,344.00
2023-10-26T15:23:34.436Z,336.00
2023-10-26T15:24:34.446Z,340.00
2023-10-26T15:25:34.377Z,352.00
2023-10-26T15:26:34.374Z,376.00
2023-10-26T15:27:34.412Z,408.00
2023-10-26T15:28:34.426Z,452.00
2023-10-26T15:29:34.344Z,468.00
2023-10-26T15:30:34.408Z,476.00
2023-10-26T15:31:34.334Z,480.00
2023-10-26T15:32:34.334Z,476.00
2023-10-26T15:33:34.377Z,468.00
2023-10-26T15:34:34.404Z,452.00
2023-10-26T15:35:34.395Z,432.00
2023-10-26T15:36:34.438Z,396.00
2023-10-26T15:37:34.251Z,352.00
2023-10-26T15:38:34.242Z,332.00
2023-10-26T15:39:34.284Z,308.00
2023-10-26T15:40:34.216Z,296.00
2023-10-26T15:41:34.216Z,284.00
2023-10-26T15:42:34.217Z,276.00
2023-10-26T15:43:34.184Z,256.00
2023-10-26T15:44:34.175Z,236.00
2023-10-26T15:45:34.258Z,216.00
2023-10-26T15:46:34.247Z,200.00
2023-10-26T15:47:34.161Z,180.00
2023-10-26T15:49:32.871Z,168.00
2023-10-26T15:49:36.509Z,172.00
2023-10-26T15:50:34.143Z,160.00
2023-10-26T15:51:34.236Z,144.00
2023-10-26T15:52:34.096Z,136.00
2023-10-26T15:53:34.080Z,140.00
2023-10-26T15:54:34.103Z,148.00
2023-10-26T15:55:34.064Z,136.00
2023-10-26T15:56:34.079Z,136.00
2023-10-26T15:57:34.241Z,136.00
2023-10-26T15:58:34.023Z,132.00
2023-10-26T15:59:34.012Z,124.00
2023-10-26T16:00:34.010Z,124.00
2023-10-26T16:01:34.150Z,112.00
2023-10-26T16:02:34.072Z,100.00
2023-10-26T16:03:34.007Z,100.00
2023-10-26T16:04:33.956Z,96.00
2023-10-26T16:05:33.943Z,88.00
2023-10-26T16:06:33.944Z,88.00
2023-10-26T16:07:34.040Z,76.00
2023-10-26T16:08:33.993Z,68.00
2023-10-26T16:09:37.220Z,60.00
2023-10-26T16:10:33.888Z,52.00
2023-10-26T16:11:33.884Z,48.00
2023-10-26T16:12:33.877Z,40.00
2023-10-26T16:13:33.855Z,40.00
2023-10-26T16:14:33.867Z,40.00
2023-10-26T16:15:33.886Z,40.00
2023-10-26T16:16:33.984Z,36.00
2023-10-26T16:17:33.873Z,32.00
2023-10-26T16:18:33.904Z,32.00
2023-10-26T16:19:34.032Z,28.00
2023-10-26T16:20:36.138Z,24.00
2023-10-26T16:21:33.807Z,24.00
2023-10-26T16:22:33.758Z,20.00
2023-10-26T16:23:33.846Z,20.00
2023-10-26T16:24:33.763Z,12.00
2023-10-26T16:25:33.720Z,12.00
2023-10-26T16:26:33.711Z,12.00
2023-10-26T16:27:33.760Z,12.00
2023-10-26T16:28:33.689Z,8.00
2023-10-26T16:29:33.674Z,4.00
2023-10-26T16:30:33.713Z,8.00
2023-10-26T16:31:33.712Z,4.00
2023-10-26T16:32:33.676Z,8.00
2023-10-26T16:33:33.636Z,4.00
2023-10-26T16:34:33.613Z,4.00
2023-10-26T16:35:33.600Z,0.00
2023-10-26T16:36:33.624Z,4.00
2023-10-26T16:37:33.734Z,4.00
2023-10-26T16:38:33.563Z,4.00
2023-10-26T16:39:33.669Z,0.00
2023-10-26T16:40:33.536Z,0.00
2023-10-26T16:41:33.530Z,0.00
2023-10-26T16:42:33.552Z,0.00
2023-10-26T16:43:33.529Z,0.00
2023-10-26T16:44:33.493Z,0.00
2023-10-26T16:45:33.511Z,0.00
